createdAt,value
2023-05-19T04:31:34.547Z,100847.37
2023-05-19T04:34:40.971Z,100847.72
2023-05-19T04:37:48.566Z,100842.62
2023-05-19T04:40:52.584Z,100850.63
2023-05-19T04:43:57.615Z,100858.78
2023-05-19T04:47:03.789Z,100854.59
2023-05-19T04:50:12.937Z,100861.50
2023-05-19T04:53:37.051Z,100861.75
2023-05-19T04:56:44.275Z,100856.44
2023-05-19T04:59:49.552Z,100856.19
2023-05-19T05:02:57.553Z,100859.06
2023-05-19T05:06:08.932Z,100847.91
2023-05-19T05:09:18.262Z,100849.94
2023-05-19T05:12:43.578Z,100853.41
2023-05-19T05:15:46.936Z,100862.88
2023-05-19T05:18:51.246Z,100866.16
2023-05-19T05:21:55.228Z,100867.03
2023-05-19T05:25:02.053Z,100865.56
2023-05-19T05:28:07.754Z,100866.22
2023-05-19T05:31:14.421Z,100867.72
2023-05-19T05:34:17.919Z,100873.41
2023-05-19T05:37:41.865Z,100874.94
2023-05-19T05:40:49.106Z,100873.12
2023-05-19T05:43:55.661Z,100890.00
2023-05-19T05:47:01.509Z,100884.28
2023-05-19T05:50:25.258Z,100889.84
2023-05-19T05:53:55.044Z,100893.94
2023-05-19T05:57:36.645Z,100895.63
2023-05-19T06:01:20.997Z,100898.63
2023-05-19T06:05:05.830Z,100904.28
2023-05-19T06:08:33.696Z,100904.38
2023-05-19T06:12:00.398Z,100910.31
2023-05-19T06:15:14.918Z,100908.91
2023-05-19T06:18:41.389Z,100915.94
2023-05-19T06:21:47.061Z,100907.19
2023-05-19T06:25:10.839Z,100901.16
2023-05-19T06:28:34.489Z,100912.28
2023-05-19T10:28:41.189Z,100832.50
2023-05-19T10:31:50.729Z,100840.72
2023-05-19T10:35:18.925Z,100839.63
2023-05-19T10:38:53.348Z,100835.31
2023-05-19T10:42:11.103Z,100837.66
2023-05-19T10:45:21.024Z,100835.88
2023-05-19T10:48:23.845Z,100820.22
2023-05-19T10:51:33.982Z,100828.66
2023-05-19T10:54:41.517Z,100824.63
2023-05-19T10:57:57.136Z,100830.69
2023-05-19T11:01:03.032Z,100827.66
2023-05-19T11:04:12.385Z,100828.00
2023-05-19T11:07:20.160Z,100818.03
2023-05-19T11:10:24.106Z,100809.53
2023-05-19T11:16:34.665Z,100809.75
2023-05-19T11:19:38.010Z,100809.87
2023-05-19T11:22:42.275Z,100805.81
2023-05-19T11:25:48.903Z,100805.59
2023-05-19T11:28:54.536Z,100806.41
2023-05-19T11:31:57.528Z,100806.19
2023-05-19T11:35:02.950Z,100811.41
2023-05-19T11:38:07.296Z,100801.28
2023-05-19T11:41:10.431Z,100810.66
2023-05-19T11:44:13.202Z,100820.47
2023-05-19T11:47:17.302Z,100810.19
2023-05-19T11:50:23.044Z,100802.75
2023-05-19T11:53:33.301Z,100801.53
2023-05-19T11:56:41.717Z,100801.66
2023-05-19T11:59:48.036Z,100804.47
2023-05-19T12:02:51.058Z,100803.78
2023-05-19T12:05:54.597Z,100793.25
2023-05-19T12:08:59.287Z,100790.56
2023-05-19T12:12:03.108Z,100792.97
2023-05-19T12:15:06.668Z,100788.88
2023-05-19T12:18:09.798Z,100786.50
2023-05-19T12:21:12.854Z,100780.63
2023-05-19T12:24:16.148Z,100774.41
2023-05-19T12:27:21.137Z,100766.69
2023-05-19T12:30:29.398Z,100764.03
2023-05-19T12:33:35.742Z,100754.31
2023-05-19T12:36:41.474Z,100749.78
2023-05-19T12:39:44.767Z,100747.66
2023-05-19T12:42:52.153Z,100737.41
2023-05-19T12:45:55.404Z,100731.19
2023-05-19T12:49:01.024Z,100733.50
2023-05-19T12:52:10.509Z,100725.25
2023-05-19T12:55:20.917Z,100734.88
2023-05-19T12:58:26.651Z,100718.19
2023-05-19T13:01:31.445Z,100729.13
2023-05-19T13:04:34.240Z,100723.59
2023-05-19T13:07:37.444Z,100734.81
2023-05-19T13:10:43.091Z,100727.06
2023-05-19T13:13:47.301Z,100725.22
2023-05-19T13:16:51.134Z,100721.66
2023-05-19T13:19:54.302Z,100713.16
2023-05-19T13:22:58.528Z,100722.34
2023-05-19T13:26:05.186Z,100710.56
2023-05-19T13:29:09.036Z,100710.47
2023-05-19T13:32:12.089Z,100705.53
2023-05-19T13:35:15.979Z,100708.50
2023-05-19T13:38:41.909Z,100700.88
2023-05-19T13:41:45.169Z,100702.97
2023-05-19T13:44:55.369Z,100696.00
2023-05-19T13:47:58.480Z,100697.03
2023-05-19T13:51:02.393Z,100693.22
2023-05-19T13:54:05.175Z,100684.75
2023-05-19T13:57:11.901Z,100683.50
2023-05-19T14:00:19.066Z,100678.22
2023-05-19T14:03:22.196Z,100682.28
2023-05-19T14:06:25.054Z,100677.87
2023-05-19T14:09:29.275Z,100671.41
2023-05-19T14:12:47.822Z,100675.47
2023-05-19T14:15:55.735Z,100678.13
2023-05-19T14:18:58.622Z,100687.97
2023-05-19T14:22:05.619Z,100686.62
2023-05-19T14:25:08.925Z,100686.19
2023-05-19T14:28:14.859Z,100685.25
2023-05-19T14:31:21.297Z,100676.03
2023-05-19T14:37:28.970Z,100667.16
2023-05-19T14:40:32.456Z,100662.72
2023-05-19T14:43:36.732Z,100661.97
2023-05-19T14:46:40.055Z,100665.22
2023-05-19T14:49:42.771Z,100663.69
2023-05-19T14:52:45.887Z,100663.81
2023-05-19T14:55:51.586Z,100659.06
2023-05-19T14:59:14.574Z,100656.16
2023-05-19T15:02:17.299Z,100657.19
2023-05-19T15:06:00.367Z,100659.31
2023-05-19T15:09:23.015Z,100667.03
2023-05-19T15:13:02.568Z,100672.22
2023-05-19T15:16:17.057Z,100672.31
2023-05-19T15:19:21.440Z,100675.75
2023-05-19T15:22:24.474Z,100665.78
2023-05-19T15:25:36.103Z,100670.59
2023-05-19T15:28:38.978Z,100660.47
2023-05-19T15:31:46.881Z,100665.59
2023-05-19T15:35:14.038Z,100673.63
2023-05-19T15:38:19.584Z,100667.66
2023-05-19T15:41:22.640Z,100668.38
2023-05-19T15:44:28.814Z,100665.59
2023-05-19T15:47:32.256Z,100661.75
2023-05-19T15:50:37.505Z,100651.81
2023-05-19T15:53:40.761Z,100655.78
2023-05-19T15:56:43.795Z,100654.88
2023-05-19T15:59:46.574Z,100653.06
2023-05-19T16:02:49.827Z,100645.53
2023-05-19T16:05:54.044Z,100634.31
2023-05-19T16:08:57.006Z,100647.44
2023-05-19T16:12:01.104Z,100650.97
2023-05-19T16:15:04.094Z,100646.72
2023-05-19T16:18:10.606Z,100639.44
2023-05-19T16:21:13.321Z,100645.38
2023-05-19T16:24:16.285Z,100633.84
2023-05-19T16:27:19.225Z,100648.44
2023-05-19T16:30:23.228Z,100641.75
2023-05-19T16:33:27.295Z,100642.41
2023-05-19T16:36:34.476Z,100635.56
2023-05-19T16:39:37.480Z,100631.75
2023-05-19T16:42:41.168Z,100639.78
2023-05-19T16:45:44.006Z,100637.31
2023-05-19T16:48:47.755Z,100642.50
2023-05-19T16:51:55.260Z,100629.97
2023-05-19T16:55:11.129Z,100631.31
2023-05-19T16:58:14.648Z,100627.03
2023-05-19T17:01:17.772Z,100627.37
2023-05-19T17:04:21.248Z,100632.00
2023-05-19T17:07:27.944Z,100627.84
2023-05-19T17:10:31.073Z,100635.38
2023-05-19T17:13:36.356Z,100624.00
2023-05-19T17:16:39.159Z,100636.06
2023-05-19T17:19:42.806Z,100634.81
2023-05-19T17:22:52.812Z,100636.59
2023-05-19T17:25:56.755Z,100631.88
2023-05-19T17:29:06.055Z,100632.22
2023-05-19T17:32:12.861Z,100638.88
2023-05-19T17:35:16.822Z,100636.84
2023-05-19T17:38:40.266Z,100633.56
2023-05-19T17:41:44.035Z,100641.03
2023-05-19T17:44:51.707Z,100638.13
2023-05-19T17:47:54.523Z,100649.53
2023-05-19T17:50:58.193Z,100647.56
2023-05-19T17:54:05.499Z,100649.19
2023-05-19T17:57:14.979Z,100647.03
2023-05-19T18:00:19.100Z,100644.66
2023-05-19T18:03:23.359Z,100649.78
2023-05-19T18:06:28.714Z,100651.44
2023-05-19T18:09:36.532Z,100651.81
2023-05-19T18:12:40.484Z,100648.16
2023-05-19T18:15:44.094Z,100643.69
2023-05-19T18:18:50.517Z,100635.75
2023-05-19T18:21:54.042Z,100633.56
2023-05-19T18:25:20.922Z,100643.91
2023-05-19T18:28:24.482Z,100642.66
2023-05-19T18:31:27.445Z,100648.66
2023-05-19T18:34:30.628Z,100650.59
2023-05-19T18:37:33.380Z,100650.25
2023-05-19T18:40:36.476Z,100651.50
2023-05-19T18:43:40.722Z,100661.00
2023-05-19T18:46:45.099Z,100661.25
2023-05-19T18:49:47.830Z,100660.13
2023-05-19T18:52:50.870Z,100661.22
2023-05-19T18:55:53.612Z,100663.09
2023-05-19T18:58:57.751Z,100665.62
2023-05-19T19:02:01.508Z,100666.19
2023-05-19T19:05:09.520Z,100672.03
2023-05-19T19:08:12.307Z,100666.31
2023-05-19T19:11:17.471Z,100664.19
2023-05-19T19:14:20.149Z,100668.72
2023-05-19T19:17:23.370Z,100665.81
2023-05-19T20:11:59.828Z,100684.63
2023-05-19T20:15:02.946Z,100679.41
2023-05-19T20:18:06.835Z,100672.97
2023-05-19T20:21:10.324Z,100676.03
2023-05-19T20:24:13.106Z,100675.56
2023-05-19T20:27:16.402Z,100674.94
2023-05-19T20:30:20.751Z,100670.28
2023-05-19T20:33:23.914Z,100677.94
2023-05-19T20:36:27.979Z,100672.19
2023-05-19T20:39:31.489Z,100668.47
2023-05-19T20:42:34.328Z,100666.81
2023-05-19T20:45:37.805Z,100669.50
2023-05-19T20:48:40.684Z,100676.50
2023-05-19T20:51:43.705Z,100683.88
2023-05-19T20:54:48.311Z,100677.91
2023-05-19T20:57:52.176Z,100678.72
2023-05-19T21:00:57.938Z,100685.16
2023-05-19T21:04:07.764Z,100683.59
2023-05-19T21:07:13.920Z,100680.97
2023-05-19T21:10:17.998Z,100683.47
2023-05-19T21:13:20.870Z,100673.31
2023-05-19T21:16:24.003Z,100671.72
2023-05-19T21:19:26.972Z,100676.50
2023-05-19T21:22:31.635Z,100675.13
2023-05-19T21:25:34.555Z,100670.13
2023-05-19T21:28:37.925Z,100669.03
2023-05-19T21:31:40.986Z,100674.41
2023-05-19T21:34:45.200Z,100670.13
2023-05-19T21:37:48.421Z,100663.97
2023-05-19T21:40:52.668Z,100662.19
2023-05-19T21:43:55.524Z,100655.13
2023-05-19T21:46:59.047Z,100654.75
2023-05-19T21:50:02.036Z,100662.78
2023-05-19T21:53:05.709Z,100665.00
2023-05-19T21:56:09.302Z,100654.50
2023-05-19T21:59:12.539Z,100667.09
2023-05-19T22:02:16.562Z,100666.50
2023-05-19T22:05:20.414Z,100663.00
2023-05-19T22:08:27.245Z,100659.62
2023-05-19T22:11:30.790Z,100663.00
2023-05-19T22:14:34.167Z,100648.66
2023-05-19T22:17:40.548Z,100649.44
2023-05-19T22:20:43.440Z,100637.16
2023-05-19T22:23:46.917Z,100631.78
2023-05-19T22:26:49.598Z,100629.97
2023-05-19T22:29:52.779Z,100616.56
2023-05-19T22:32:55.687Z,100623.16
2023-05-19T22:35:59.389Z,100612.50
2023-05-19T22:39:04.661Z,100604.69
2023-05-19T22:42:08.065Z,100601.91
2023-05-19T22:45:12.071Z,100601.81
2023-05-19T22:48:15.083Z,100594.94
2023-05-19T22:51:17.879Z,100597.38
2023-05-19T22:54:21.680Z,100592.81
2023-05-19T22:57:24.327Z,100589.97
2023-05-19T23:00:27.325Z,100596.50
2023-05-19T23:03:30.077Z,100596.13
2023-05-19T23:06:41.278Z,100591.28
2023-05-19T23:09:44.242Z,100600.66
2023-05-19T23:12:48.847Z,100594.13
2023-05-19T23:15:51.921Z,100593.72
2023-05-19T23:18:55.793Z,100593.28
2023-05-19T23:21:59.611Z,100598.22
2023-05-19T23:25:07.642Z,100591.84
2023-05-19T23:28:11.716Z,100588.00
2023-05-19T23:31:17.869Z,100597.50
2023-05-19T23:34:20.950Z,100592.44
2023-05-19T23:37:57.968Z,100583.97
2023-05-19T23:41:22.401Z,100588.50
2023-05-19T23:44:27.375Z,100588.59
2023-05-19T23:47:41.153Z,100583.16
2023-05-19T23:50:45.444Z,100577.16
2023-05-19T23:53:49.089Z,100578.31
2023-05-19T23:56:53.129Z,100581.94
2023-05-19T23:59:56.613Z,100574.03
